sensor_id;sensor_type;location;lat;lon;timestamp;temperature;humidity
12632;DHT22;6381;45.748;12.106;2023-12-22T00:01:36;5.10;99.90
12632;DHT22;6381;45.748;12.106;2023-12-22T00:04:07;4.90;99.90
12632;DHT22;6381;45.748;12.106;2023-12-22T00:06:37;4.90;99.90
12632;DHT22;6381;45.748;12.106;2023-12-22T00:09:09;5.10;99.90
12632;DHT22;6381;45.748;12.106;2023-12-22T00:11:39;5.10;99.90
12632;DHT22;6381;45.748;12.106;2023-12-22T00:14:08;5.10;99.90
12632;DHT22;6381;45.748;12.106;2023-12-22T00:16:39;5.00;99.90
12632;DHT22;6381;45.748;12.106;2023-12-22T00:19:09;5.00;99.90
12632;DHT22;6381;45.748;12.106;2023-12-22T00:21:39;5.10;99.90
12632;DHT22;6381;45.748;12.106;2023-12-22T00:24:10;5.10;99.90
12632;DHT22;6381;45.748;12.106;2023-12-22T00:26:40;5.30;99.90
12632;DHT22;6381;45.748;12.106;2023-12-22T00:29:11;5.30;99.90
12632;DHT22;6381;45.748;12.106;2023-12-22T00:31:40;5.30;99.90
12632;DHT22;6381;45.748;12.106;2023-12-22T00:34:10;5.30;99.90
12632;DHT22;6381;45.748;12.106;2023-12-22T00:36:40;5.20;99.90
12632;DHT22;6381;45.748;12.106;2023-12-22T00:39:11;5.20;99.90
12632;DHT22;6381;45.748;12.106;2023-12-22T00:41:40;5.00;99.90
12632;DHT22;6381;45.748;12.106;2023-12-22T00:44:10;4.80;99.90
12632;DHT22;6381;45.748;12.106;2023-12-22T00:46:40;4.90;99.90
12632;DHT22;6381;45.748;12.106;2023-12-22T00:49:10;5.00;99.90
12632;DHT22;6381;45.748;12.106;2023-12-22T00:51:40;5.10;99.90
12632;DHT22;6381;45.748;12.106;2023-12-22T00:54:11;5.20;99.90
12632;DHT22;6381;45.748;12.106;2023-12-22T00:56:41;5.20;99.90
12632;DHT22;6381;45.748;12.106;2023-12-22T00:59:11;5.20;99.90
12632;DHT22;6381;45.748;12.106;2023-12-22T01:01:41;5.30;99.90
12632;DHT22;6381;45.748;12.106;2023-12-22T01:04:13;5.10;99.90
12632;DHT22;6381;45.748;12.106;2023-12-22T01:09:14;5.30;99.90
12632;DHT22;6381;45.748;12.106;2023-12-22T01:11:44;5.20;99.90
12632;DHT22;6381;45.748;12.106;2023-12-22T01:14:14;5.20;99.90
12632;DHT22;6381;45.748;12.106;2023-12-22T01:16:44;5.20;99.90
12632;DHT22;6381;45.748;12.106;2023-12-22T01:19:15;5.10;99.90
12632;DHT22;6381;45.748;12.106;2023-12-22T01:21:45;5.30;99.90
12632;DHT22;6381;45.748;12.106;2023-12-22T01:24:21;5.30;99.90
12632;DHT22;6381;45.748;12.106;2023-12-22T01:26:51;5.10;99.90
12632;DHT22;6381;45.748;12.106;2023-12-22T01:29:21;5.10;99.90
12632;DHT22;6381;45.748;12.106;2023-12-22T01:31:51;5.20;99.90
12632;DHT22;6381;45.748;12.106;2023-12-22T01:34:20;5.40;99.90
12632;DHT22;6381;45.748;12.106;2023-12-22T01:39:23;5.60;99.90
12632;DHT22;6381;45.748;12.106;2023-12-22T01:41:53;5.70;99.90
12632;DHT22;6381;45.748;12.106;2023-12-22T01:46:55;5.40;99.90
12632;DHT22;6381;45.748;12.106;2023-12-22T01:49:26;5.50;99.90
12632;DHT22;6381;45.748;12.106;2023-12-22T01:51:58;5.70;99.90
12632;DHT22;6381;45.748;12.106;2023-12-22T01:54:31;5.30;99.90
12632;DHT22;6381;45.748;12.106;2023-12-22T01:57:01;5.60;99.90
12632;DHT22;6381;45.748;12.106;2023-12-22T02:02:03;5.60;99.90
12632;DHT22;6381;45.748;12.106;2023-12-22T02:04:33;5.70;99.90
12632;DHT22;6381;45.748;12.106;2023-12-22T02:07:03;5.80;99.90
12632;DHT22;6381;45.748;12.106;2023-12-22T02:09:35;5.60;99.90
12632;DHT22;6381;45.748;12.106;2023-12-22T02:12:06;5.80;99.90
12632;DHT22;6381;45.748;12.106;2023-12-22T02:14:36;5.90;99.90
12632;DHT22;6381;45.748;12.106;2023-12-22T02:17:15;5.60;99.90
12632;DHT22;6381;45.748;12.106;2023-12-22T02:19:51;5.60;99.90
12632;DHT22;6381;45.748;12.106;2023-12-22T02:22:21;5.70;99.90
12632;DHT22;6381;45.748;12.106;2023-12-22T02:24:56;5.60;99.90
12632;DHT22;6381;45.748;12.106;2023-12-22T02:27:36;5.70;99.90
12632;DHT22;6381;45.748;12.106;2023-12-22T02:30:11;5.70;99.90
12632;DHT22;6381;45.748;12.106;2023-12-22T02:32:45;5.50;99.90
12632;DHT22;6381;45.748;12.106;2023-12-22T02:35:19;5.70;99.90
12632;DHT22;6381;45.748;12.106;2023-12-22T02:37:51;5.90;99.90
12632;DHT22;6381;45.748;12.106;2023-12-22T02:40:25;5.70;99.90
12632;DHT22;6381;45.748;12.106;2023-12-22T02:42:56;5.70;99.90
12632;DHT22;6381;45.748;12.106;2023-12-22T02:45:25;5.70;99.90
12632;DHT22;6381;45.748;12.106;2023-12-22T02:47:55;5.80;99.90
12632;DHT22;6381;45.748;12.106;2023-12-22T02:50:25;5.80;99.90
12632;DHT22;6381;45.748;12.106;2023-12-22T02:52:55;5.80;99.90
12632;DHT22;6381;45.748;12.106;2023-12-22T02:55:27;5.60;99.90
12632;DHT22;6381;45.748;12.106;2023-12-22T02:57:57;5.50;99.90
12632;DHT22;6381;45.748;12.106;2023-12-22T03:00:27;5.50;99.90
12632;DHT22;6381;45.748;12.106;2023-12-22T03:02:56;5.60;99.90
12632;DHT22;6381;45.748;12.106;2023-12-22T03:05:27;5.50;99.90
12632;DHT22;6381;45.748;12.106;2023-12-22T03:07:57;5.50;99.90
12632;DHT22;6381;45.748;12.106;2023-12-22T03:10:29;5.30;99.90
12632;DHT22;6381;45.748;12.106;2023-12-22T03:12:59;5.30;99.90
12632;DHT22;6381;45.748;12.106;2023-12-22T03:15:29;5.30;99.90
12632;DHT22;6381;45.748;12.106;2023-12-22T03:18:00;5.40;99.90
12632;DHT22;6381;45.748;12.106;2023-12-22T03:20:30;5.30;99.90
12632;DHT22;6381;45.748;12.106;2023-12-22T03:23:00;5.30;99.90
12632;DHT22;6381;45.748;12.106;2023-12-22T03:25:33;5.40;99.90
12632;DHT22;6381;45.748;12.106;2023-12-22T03:28:03;5.20;99.90
12632;DHT22;6381;45.748;12.106;2023-12-22T03:30:33;5.30;99.90
12632;DHT22;6381;45.748;12.106;2023-12-22T03:33:06;5.30;99.90
12632;DHT22;6381;45.748;12.106;2023-12-22T03:35:36;5.40;99.90
12632;DHT22;6381;45.748;12.106;2023-12-22T03:38:06;5.30;99.90
12632;DHT22;6381;45.748;12.106;2023-12-22T03:40:37;5.20;99.90
12632;DHT22;6381;45.748;12.106;2023-12-22T03:43:07;5.30;99.90
12632;DHT22;6381;45.748;12.106;2023-12-22T03:45:36;5.10;99.90
12632;DHT22;6381;45.748;12.106;2023-12-22T03:48:06;5.30;99.90
12632;DHT22;6381;45.748;12.106;2023-12-22T03:50:36;5.50;99.90
12632;DHT22;6381;45.748;12.106;2023-12-22T03:53:06;5.40;99.90
12632;DHT22;6381;45.748;12.106;2023-12-22T03:55:37;5.40;99.90
12632;DHT22;6381;45.748;12.106;2023-12-22T03:58:07;5.40;99.90
12632;DHT22;6381;45.748;12.106;2023-12-22T04:00:38;5.40;99.90
12632;DHT22;6381;45.748;12.106;2023-12-22T04:03:08;5.20;99.90
12632;DHT22;6381;45.748;12.106;2023-12-22T04:05:37;5.50;99.90
12632;DHT22;6381;45.748;12.106;2023-12-22T04:08:09;5.60;99.90
12632;DHT22;6381;45.748;12.106;2023-12-22T04:10:40;5.60;99.90
12632;DHT22;6381;45.748;12.106;2023-12-22T04:13:11;5.60;99.90
12632;DHT22;6381;45.748;12.106;2023-12-22T04:15:41;5.50;99.90
12632;DHT22;6381;45.748;12.106;2023-12-22T04:18:11;5.60;99.90
12632;DHT22;6381;45.748;12.106;2023-12-22T04:20:42;5.50;99.90
12632;DHT22;6381;45.748;12.106;2023-12-22T04:23:11;5.60;99.90
12632;DHT22;6381;45.748;12.106;2023-12-22T04:25:42;5.50;99.90
12632;DHT22;6381;45.748;12.106;2023-12-22T04:28:13;5.40;99.90
12632;DHT22;6381;45.748;12.106;2023-12-22T04:30:43;5.70;99.90
12632;DHT22;6381;45.748;12.106;2023-12-22T04:33:13;5.70;99.60
12632;DHT22;6381;45.748;12.106;2023-12-22T04:35:43;5.80;98.60
12632;DHT22;6381;45.748;12.106;2023-12-22T04:38:12;5.50;98.70
12632;DHT22;6381;45.748;12.106;2023-12-22T04:40:44;6.00;98.40
12632;DHT22;6381;45.748;12.106;2023-12-22T04:43:13;6.00;98.50
12632;DHT22;6381;45.748;12.106;2023-12-22T04:45:43;6.20;98.00
12632;DHT22;6381;45.748;12.106;2023-12-22T04:48:13;6.30;96.90
12632;DHT22;6381;45.748;12.106;2023-12-22T04:50:43;6.30;95.40
12632;DHT22;6381;45.748;12.106;2023-12-22T04:53:13;6.30;94.70
12632;DHT22;6381;45.748;12.106;2023-12-22T04:55:44;6.30;93.80
12632;DHT22;6381;45.748;12.106;2023-12-22T04:58:14;6.30;93.50
12632;DHT22;6381;45.748;12.106;2023-12-22T05:00:44;6.50;93.20
12632;DHT22;6381;45.748;12.106;2023-12-22T05:03:13;6.40;92.90
12632;DHT22;6381;45.748;12.106;2023-12-22T05:05:43;6.40;92.90
12632;DHT22;6381;45.748;12.106;2023-12-22T05:08:13;6.60;93.00
12632;DHT22;6381;45.748;12.106;2023-12-22T05:10:45;6.60;92.00
12632;DHT22;6381;45.748;12.106;2023-12-22T05:13:16;6.60;92.10
12632;DHT22;6381;45.748;12.106;2023-12-22T05:15:46;6.60;90.80
12632;DHT22;6381;45.748;12.106;2023-12-22T05:18:15;6.60;90.80
12632;DHT22;6381;45.748;12.106;2023-12-22T05:20:45;6.60;91.10
12632;DHT22;6381;45.748;12.106;2023-12-22T05:23:16;6.60;91.60
12632;DHT22;6381;45.748;12.106;2023-12-22T05:25:47;6.70;92.00
12632;DHT22;6381;45.748;12.106;2023-12-22T05:28:17;6.80;92.70
12632;DHT22;6381;45.748;12.106;2023-12-22T05:30:47;6.60;94.10
12632;DHT22;6381;45.748;12.106;2023-12-22T05:33:17;6.60;94.80
12632;DHT22;6381;45.748;12.106;2023-12-22T05:35:47;6.60;95.50
12632;DHT22;6381;45.748;12.106;2023-12-22T05:38:17;6.40;96.50
12632;DHT22;6381;45.748;12.106;2023-12-22T05:40:48;6.40;98.10
12632;DHT22;6381;45.748;12.106;2023-12-22T05:43:19;6.60;98.60
12632;DHT22;6381;45.748;12.106;2023-12-22T05:45:58;6.80;98.70
12632;DHT22;6381;45.748;12.106;2023-12-22T05:48:38;6.60;99.10
12632;DHT22;6381;45.748;12.106;2023-12-22T05:51:09;6.70;99.90
12632;DHT22;6381;45.748;12.106;2023-12-22T05:53:42;6.80;99.90
12632;DHT22;6381;45.748;12.106;2023-12-22T05:56:21;6.90;99.80
12632;DHT22;6381;45.748;12.106;2023-12-22T05:58:51;6.80;99.90
12632;DHT22;6381;45.748;12.106;2023-12-22T06:01:22;6.90;99.90
12632;DHT22;6381;45.748;12.106;2023-12-22T06:03:52;6.80;99.90
12632;DHT22;6381;45.748;12.106;2023-12-22T06:06:22;7.00;99.90
12632;DHT22;6381;45.748;12.106;2023-12-22T06:08:53;6.60;99.90
12632;DHT22;6381;45.748;12.106;2023-12-22T06:11:24;6.80;99.90
12632;DHT22;6381;45.748;12.106;2023-12-22T06:13:54;6.80;99.90
12632;DHT22;6381;45.748;12.106;2023-12-22T06:16:24;6.80;99.90
12632;DHT22;6381;45.748;12.106;2023-12-22T06:18:54;6.90;99.90
12632;DHT22;6381;45.748;12.106;2023-12-22T06:21:24;6.90;99.90
12632;DHT22;6381;45.748;12.106;2023-12-22T06:23:56;6.90;99.90
12632;DHT22;6381;45.748;12.106;2023-12-22T06:26:29;7.00;99.90
12632;DHT22;6381;45.748;12.106;2023-12-22T06:29:00;7.00;99.90
12632;DHT22;6381;45.748;12.106;2023-12-22T06:31:33;7.00;99.90
12632;DHT22;6381;45.748;12.106;2023-12-22T06:34:04;7.10;99.90
12632;DHT22;6381;45.748;12.106;2023-12-22T06:36:33;7.20;99.90
12632;DHT22;6381;45.748;12.106;2023-12-22T06:39:03;7.20;99.90
12632;DHT22;6381;45.748;12.106;2023-12-22T06:41:34;6.50;99.90
12632;DHT22;6381;45.748;12.106;2023-12-22T06:44:06;6.20;99.90
12632;DHT22;6381;45.748;12.106;2023-12-22T06:46:36;6.50;99.90
12632;DHT22;6381;45.748;12.106;2023-12-22T06:49:06;6.50;99.90
12632;DHT22;6381;45.748;12.106;2023-12-22T06:51:36;6.20;99.90
12632;DHT22;6381;45.748;12.106;2023-12-22T06:54:05;6.40;99.90
12632;DHT22;6381;45.748;12.106;2023-12-22T06:56:41;6.20;99.90
12632;DHT22;6381;45.748;12.106;2023-12-22T06:59:11;6.20;99.90
12632;DHT22;6381;45.748;12.106;2023-12-22T07:01:44;6.10;99.90
12632;DHT22;6381;45.748;12.106;2023-12-22T07:07:38;6.10;99.90
12632;DHT22;6381;45.748;12.106;2023-12-22T07:10:08;6.10;99.90
12632;DHT22;6381;45.748;12.106;2023-12-22T07:12:41;6.00;99.90
12632;DHT22;6381;45.748;12.106;2023-12-22T07:15:13;6.00;99.90
12632;DHT22;6381;45.748;12.106;2023-12-22T07:17:43;6.00;99.90
12632;DHT22;6381;45.748;12.106;2023-12-22T07:20:14;6.00;99.90
12632;DHT22;6381;45.748;12.106;2023-12-22T07:22:45;6.10;99.90
12632;DHT22;6381;45.748;12.106;2023-12-22T07:25:15;5.50;99.90
12632;DHT22;6381;45.748;12.106;2023-12-22T07:27:48;5.40;99.90
12632;DHT22;6381;45.748;12.106;2023-12-22T07:30:20;5.50;99.90
12632;DHT22;6381;45.748;12.106;2023-12-22T07:32:49;5.60;99.90
12632;DHT22;6381;45.748;12.106;2023-12-22T07:35:21;5.60;99.90
12632;DHT22;6381;45.748;12.106;2023-12-22T07:37:51;5.70;99.90
12632;DHT22;6381;45.748;12.106;2023-12-22T07:40:23;5.80;99.90
12632;DHT22;6381;45.748;12.106;2023-12-22T07:42:54;5.80;99.90
12632;DHT22;6381;45.748;12.106;2023-12-22T07:45:24;5.80;99.90
12632;DHT22;6381;45.748;12.106;2023-12-22T07:47:55;5.70;99.90
12632;DHT22;6381;45.748;12.106;2023-12-22T07:50:26;5.90;99.90
12632;DHT22;6381;45.748;12.106;2023-12-22T07:52:57;6.50;99.90
12632;DHT22;6381;45.748;12.106;2023-12-22T07:55:32;6.20;99.90
12632;DHT22;6381;45.748;12.106;2023-12-22T07:58:04;6.10;99.90
12632;DHT22;6381;45.748;12.106;2023-12-22T08:00:34;6.00;99.90
12632;DHT22;6381;45.748;12.106;2023-12-22T08:03:05;6.00;99.90
12632;DHT22;6381;45.748;12.106;2023-12-22T08:05:35;6.20;99.90
12632;DHT22;6381;45.748;12.106;2023-12-22T08:08:05;6.20;99.90
12632;DHT22;6381;45.748;12.106;2023-12-22T08:10:35;6.40;99.90
12632;DHT22;6381;45.748;12.106;2023-12-22T08:13:08;6.50;99.90
12632;DHT22;6381;45.748;12.106;2023-12-22T08:15:39;6.60;99.90
12632;DHT22;6381;45.748;12.106;2023-12-22T08:18:09;6.80;99.90
12632;DHT22;6381;45.748;12.106;2023-12-22T08:20:39;7.20;99.90
12632;DHT22;6381;45.748;12.106;2023-12-22T08:23:12;7.30;99.90
12632;DHT22;6381;45.748;12.106;2023-12-22T08:25:43;7.50;99.90
12632;DHT22;6381;45.748;12.106;2023-12-22T08:28:15;7.80;99.90
12632;DHT22;6381;45.748;12.106;2023-12-22T08:30:46;8.20;99.90
12632;DHT22;6381;45.748;12.106;2023-12-22T08:33:16;8.40;99.90
12632;DHT22;6381;45.748;12.106;2023-12-22T08:35:46;8.30;99.90
12632;DHT22;6381;45.748;12.106;2023-12-22T08:38:16;8.40;99.90
12632;DHT22;6381;45.748;12.106;2023-12-22T08:40:46;8.50;99.90
12632;DHT22;6381;45.748;12.106;2023-12-22T08:43:22;7.20;99.90
12632;DHT22;6381;45.748;12.106;2023-12-22T08:45:53;6.40;99.90
12632;DHT22;6381;45.748;12.106;2023-12-22T08:48:23;6.10;99.90
12632;DHT22;6381;45.748;12.106;2023-12-22T08:53:24;6.20;99.90
12632;DHT22;6381;45.748;12.106;2023-12-22T08:55:54;6.30;99.90
12632;DHT22;6381;45.748;12.106;2023-12-22T08:58:26;6.40;99.90
12632;DHT22;6381;45.748;12.106;2023-12-22T09:00:58;6.50;99.90
12632;DHT22;6381;45.748;12.106;2023-12-22T09:03:28;6.60;99.90
12632;DHT22;6381;45.748;12.106;2023-12-22T09:05:58;6.70;99.90
12632;DHT22;6381;45.748;12.106;2023-12-22T09:08:28;6.60;99.90
12632;DHT22;6381;45.748;12.106;2023-12-22T09:11:03;6.70;99.90
12632;DHT22;6381;45.748;12.106;2023-12-22T09:13:35;6.80;99.90
12632;DHT22;6381;45.748;12.106;2023-12-22T09:16:06;7.10;99.90
12632;DHT22;6381;45.748;12.106;2023-12-22T09:18:36;7.20;99.90
12632;DHT22;6381;45.748;12.106;2023-12-22T09:21:06;7.40;99.90
12632;DHT22;6381;45.748;12.106;2023-12-22T09:23:37;7.50;99.90
12632;DHT22;6381;45.748;12.106;2023-12-22T09:26:07;7.50;99.90
12632;DHT22;6381;45.748;12.106;2023-12-22T09:28:39;7.40;99.90
12632;DHT22;6381;45.748;12.106;2023-12-22T09:31:08;7.80;99.70
12632;DHT22;6381;45.748;12.106;2023-12-22T09:33:39;7.90;99.50
12632;DHT22;6381;45.748;12.106;2023-12-22T09:36:10;8.00;98.20
12632;DHT22;6381;45.748;12.106;2023-12-22T09:38:40;8.10;98.10
12632;DHT22;6381;45.748;12.106;2023-12-22T09:41:12;8.30;97.60
12632;DHT22;6381;45.748;12.106;2023-12-22T09:43:45;8.40;96.60
12632;DHT22;6381;45.748;12.106;2023-12-22T09:46:19;8.40;95.90
12632;DHT22;6381;45.748;12.106;2023-12-22T09:48:51;8.70;96.10
12632;DHT22;6381;45.748;12.106;2023-12-22T09:51:22;8.90;95.70
12632;DHT22;6381;45.748;12.106;2023-12-22T09:53:53;9.10;94.40
12632;DHT22;6381;45.748;12.106;2023-12-22T09:56:24;8.90;94.30
12632;DHT22;6381;45.748;12.106;2023-12-22T09:58:57;9.40;94.40
12632;DHT22;6381;45.748;12.106;2023-12-22T10:01:28;9.40;93.80
12632;DHT22;6381;45.748;12.106;2023-12-22T10:04:00;9.60;93.80
12632;DHT22;6381;45.748;12.106;2023-12-22T10:06:31;9.90;92.80
12632;DHT22;6381;45.748;12.106;2023-12-22T10:09:01;9.90;91.40
12632;DHT22;6381;45.748;12.106;2023-12-22T10:11:33;10.50;91.50
12632;DHT22;6381;45.748;12.106;2023-12-22T10:14:06;9.80;91.30
12632;DHT22;6381;45.748;12.106;2023-12-22T10:16:38;10.10;91.90
12632;DHT22;6381;45.748;12.106;2023-12-22T10:19:08;10.70;92.80
12632;DHT22;6381;45.748;12.106;2023-12-22T10:21:38;10.60;89.90
12632;DHT22;6381;45.748;12.106;2023-12-22T10:27:19;10.90;86.90
12632;DHT22;6381;45.748;12.106;2023-12-22T10:29:55;11.10;85.80
12632;DHT22;6381;45.748;12.106;2023-12-22T10:32:26;11.30;84.10
12632;DHT22;6381;45.748;12.106;2023-12-22T10:34:56;12.10;76.10
12632;DHT22;6381;45.748;12.106;2023-12-22T10:37:26;12.00;76.40
12632;DHT22;6381;45.748;12.106;2023-12-22T10:39:56;12.20;71.70
12632;DHT22;6381;45.748;12.106;2023-12-22T10:42:26;12.50;69.10
12632;DHT22;6381;45.748;12.106;2023-12-22T10:44:58;12.60;67.50
12632;DHT22;6381;45.748;12.106;2023-12-22T10:47:28;12.20;64.00
12632;DHT22;6381;45.748;12.106;2023-12-22T10:50:02;12.00;63.60
12632;DHT22;6381;45.748;12.106;2023-12-22T10:52:33;12.30;64.20
12632;DHT22;6381;45.748;12.106;2023-12-22T10:55:03;12.40;63.00
12632;DHT22;6381;45.748;12.106;2023-12-22T10:57:34;12.30;62.20
12632;DHT22;6381;45.748;12.106;2023-12-22T11:00:11;12.40;60.90
12632;DHT22;6381;45.748;12.106;2023-12-22T11:02:47;12.90;60.10
12632;DHT22;6381;45.748;12.106;2023-12-22T11:05:22;12.50;58.40
12632;DHT22;6381;45.748;12.106;2023-12-22T11:07:55;12.10;59.20
12632;DHT22;6381;45.748;12.106;2023-12-22T11:10:31;12.00;59.70
12632;DHT22;6381;45.748;12.106;2023-12-22T11:13:03;12.00;61.10
12632;DHT22;6381;45.748;12.106;2023-12-22T11:19:37;12.30;62.00
12632;DHT22;6381;45.748;12.106;2023-12-22T11:22:31;12.20;62.40
12632;DHT22;6381;45.748;12.106;2023-12-22T11:25:41;12.10;63.20
12632;DHT22;6381;45.748;12.106;2023-12-22T11:28:12;12.80;64.80
12632;DHT22;6381;45.748;12.106;2023-12-22T11:30:45;12.90;64.70
12632;DHT22;6381;45.748;12.106;2023-12-22T11:35:47;13.00;58.50
12632;DHT22;6381;45.748;12.106;2023-12-22T11:38:17;13.00;57.60
12632;DHT22;6381;45.748;12.106;2023-12-22T11:40:48;13.20;57.20
12632;DHT22;6381;45.748;12.106;2023-12-22T11:43:21;13.20;57.70
12632;DHT22;6381;45.748;12.106;2023-12-22T11:45:52;13.30;57.60
12632;DHT22;6381;45.748;12.106;2023-12-22T11:48:22;13.90;56.40
12632;DHT22;6381;45.748;12.106;2023-12-22T11:50:52;14.30;59.50
12632;DHT22;6381;45.748;12.106;2023-12-22T11:53:23;14.70;59.30
12632;DHT22;6381;45.748;12.106;2023-12-22T12:01:01;14.70;55.50
12632;DHT22;6381;45.748;12.106;2023-12-22T12:03:35;15.30;50.90
12632;DHT22;6381;45.748;12.106;2023-12-22T12:06:32;14.80;50.20
12632;DHT22;6381;45.748;12.106;2023-12-22T12:09:05;15.30;49.40
12632;DHT22;6381;45.748;12.106;2023-12-22T12:14:48;16.60;47.20
12632;DHT22;6381;45.748;12.106;2023-12-22T12:17:23;15.70;47.10
12632;DHT22;6381;45.748;12.106;2023-12-22T12:19:58;15.50;46.10
12632;DHT22;6381;45.748;12.106;2023-12-22T12:30:48;16.30;49.90
12632;DHT22;6381;45.748;12.106;2023-12-22T12:33:21;15.20;44.10
12632;DHT22;6381;45.748;12.106;2023-12-22T12:35:53;15.80;43.50
12632;DHT22;6381;45.748;12.106;2023-12-22T12:38:36;16.20;43.80
12632;DHT22;6381;45.748;12.106;2023-12-22T12:41:10;15.90;43.10
12632;DHT22;6381;45.748;12.106;2023-12-22T12:43:42;16.30;43.10
12632;DHT22;6381;45.748;12.106;2023-12-22T12:46:12;16.60;42.90
12632;DHT22;6381;45.748;12.106;2023-12-22T12:48:44;16.60;41.90
12632;DHT22;6381;45.748;12.106;2023-12-22T12:55:22;16.60;40.30
12632;DHT22;6381;45.748;12.106;2023-12-22T12:58:11;16.70;40.10
12632;DHT22;6381;45.748;12.106;2023-12-22T13:01:07;16.40;38.50
12632;DHT22;6381;45.748;12.106;2023-12-22T13:03:56;16.50;39.20
12632;DHT22;6381;45.748;12.106;2023-12-22T13:06:26;15.80;38.00
12632;DHT22;6381;45.748;12.106;2023-12-22T13:08:57;16.20;37.70
12632;DHT22;6381;45.748;12.106;2023-12-22T13:11:29;16.20;36.00
12632;DHT22;6381;45.748;12.106;2023-12-22T13:14:00;16.40;36.50
12632;DHT22;6381;45.748;12.106;2023-12-22T13:16:31;17.00;35.80
12632;DHT22;6381;45.748;12.106;2023-12-22T13:19:02;17.20;38.80
12632;DHT22;6381;45.748;12.106;2023-12-22T13:21:51;16.80;37.30
12632;DHT22;6381;45.748;12.106;2023-12-22T13:24:32;16.70;39.50
12632;DHT22;6381;45.748;12.106;2023-12-22T13:27:03;16.30;36.30
12632;DHT22;6381;45.748;12.106;2023-12-22T13:29:43;16.80;38.30
12632;DHT22;6381;45.748;12.106;2023-12-22T13:32:17;17.00;36.10
12632;DHT22;6381;45.748;12.106;2023-12-22T13:34:51;17.20;35.00
12632;DHT22;6381;45.748;12.106;2023-12-22T13:37:21;17.50;35.40
12632;DHT22;6381;45.748;12.106;2023-12-22T13:39:52;17.00;33.80
12632;DHT22;6381;45.748;12.106;2023-12-22T13:42:22;16.90;34.00
12632;DHT22;6381;45.748;12.106;2023-12-22T13:44:52;16.20;35.00
12632;DHT22;6381;45.748;12.106;2023-12-22T13:47:22;16.70;35.50
12632;DHT22;6381;45.748;12.106;2023-12-22T13:49:57;17.00;35.40
12632;DHT22;6381;45.748;12.106;2023-12-22T13:52:28;17.10;35.10
12632;DHT22;6381;45.748;12.106;2023-12-22T13:55:00;16.90;35.10
12632;DHT22;6381;45.748;12.106;2023-12-22T13:57:30;17.20;34.80
12632;DHT22;6381;45.748;12.106;2023-12-22T14:00:00;17.50;34.30
12632;DHT22;6381;45.748;12.106;2023-12-22T14:02:33;16.40;33.90
12632;DHT22;6381;45.748;12.106;2023-12-22T14:05:04;16.70;34.70
12632;DHT22;6381;45.748;12.106;2023-12-22T14:07:35;16.50;34.00
12632;DHT22;6381;45.748;12.106;2023-12-22T14:10:05;16.70;34.70
12632;DHT22;6381;45.748;12.106;2023-12-22T14:12:35;16.90;34.60
12632;DHT22;6381;45.748;12.106;2023-12-22T14:15:06;16.40;34.40
12632;DHT22;6381;45.748;12.106;2023-12-22T14:17:36;16.50;35.80
12632;DHT22;6381;45.748;12.106;2023-12-22T14:20:08;16.20;36.00
12632;DHT22;6381;45.748;12.106;2023-12-22T14:22:40;16.10;35.80
12632;DHT22;6381;45.748;12.106;2023-12-22T14:25:09;15.50;37.00
12632;DHT22;6381;45.748;12.106;2023-12-22T14:27:39;15.40;37.50
12632;DHT22;6381;45.748;12.106;2023-12-22T14:30:10;15.40;39.10
12632;DHT22;6381;45.748;12.106;2023-12-22T14:32:40;15.20;39.80
12632;DHT22;6381;45.748;12.106;2023-12-22T14:35:12;15.00;42.50
12632;DHT22;6381;45.748;12.106;2023-12-22T14:37:41;14.10;46.70
12632;DHT22;6381;45.748;12.106;2023-12-22T14:40:13;13.60;44.80
12632;DHT22;6381;45.748;12.106;2023-12-22T14:42:43;13.70;47.00
12632;DHT22;6381;45.748;12.106;2023-12-22T14:45:14;13.60;48.20
12632;DHT22;6381;45.748;12.106;2023-12-22T14:47:44;13.60;50.00
12632;DHT22;6381;45.748;12.106;2023-12-22T14:50:16;13.90;50.10
12632;DHT22;6381;45.748;12.106;2023-12-22T14:52:46;14.10;49.60
12632;DHT22;6381;45.748;12.106;2023-12-22T14:55:17;14.40;49.20
12632;DHT22;6381;45.748;12.106;2023-12-22T14:57:46;14.50;48.80
12632;DHT22;6381;45.748;12.106;2023-12-22T15:00:18;14.50;48.60
12632;DHT22;6381;45.748;12.106;2023-12-22T15:02:48;14.30;48.30
12632;DHT22;6381;45.748;12.106;2023-12-22T15:05:20;14.20;48.60
12632;DHT22;6381;45.748;12.106;2023-12-22T15:07:51;13.80;49.90
12632;DHT22;6381;45.748;12.106;2023-12-22T15:10:22;13.40;51.20
12632;DHT22;6381;45.748;12.106;2023-12-22T15:12:51;13.50;52.10
12632;DHT22;6381;45.748;12.106;2023-12-22T15:15:21;13.20;53.10
12632;DHT22;6381;45.748;12.106;2023-12-22T15:17:52;13.00;54.90
12632;DHT22;6381;45.748;12.106;2023-12-22T15:20:24;12.30;55.60
12632;DHT22;6381;45.748;12.106;2023-12-22T15:22:54;11.80;59.10
12632;DHT22;6381;45.748;12.106;2023-12-22T15:25:24;11.50;63.30
12632;DHT22;6381;45.748;12.106;2023-12-22T15:27:55;11.40;67.90
12632;DHT22;6381;45.748;12.106;2023-12-22T15:30:24;11.40;70.50
12632;DHT22;6381;45.748;12.106;2023-12-22T15:32:56;11.00;72.10
12632;DHT22;6381;45.748;12.106;2023-12-22T15:35:27;10.80;77.20
12632;DHT22;6381;45.748;12.106;2023-12-22T15:37:57;10.80;79.90
12632;DHT22;6381;45.748;12.106;2023-12-22T15:40:27;10.80;81.90
12632;DHT22;6381;45.748;12.106;2023-12-22T15:42:57;10.70;83.40
12632;DHT22;6381;45.748;12.106;2023-12-22T15:45:27;10.70;83.80
12632;DHT22;6381;45.748;12.106;2023-12-22T15:47:58;10.50;85.70
12632;DHT22;6381;45.748;12.106;2023-12-22T15:50:32;10.70;87.20
12632;DHT22;6381;45.748;12.106;2023-12-22T15:53:02;10.60;87.40
12632;DHT22;6381;45.748;12.106;2023-12-22T15:55:33;10.40;88.60
12632;DHT22;6381;45.748;12.106;2023-12-22T15:58:03;10.50;90.30
12632;DHT22;6381;45.748;12.106;2023-12-22T16:00:33;10.40;90.60
12632;DHT22;6381;45.748;12.106;2023-12-22T16:03:04;10.10;91.00
12632;DHT22;6381;45.748;12.106;2023-12-22T16:05:35;9.80;92.40
12632;DHT22;6381;45.748;12.106;2023-12-22T16:08:05;10.10;92.70
12632;DHT22;6381;45.748;12.106;2023-12-22T16:10:36;10.00;92.50
12632;DHT22;6381;45.748;12.106;2023-12-22T16:13:06;10.00;92.50
12632;DHT22;6381;45.748;12.106;2023-12-22T16:15:37;10.00;93.40
12632;DHT22;6381;45.748;12.106;2023-12-22T16:18:07;9.80;93.80
12632;DHT22;6381;45.748;12.106;2023-12-22T16:20:38;9.80;93.90
12632;DHT22;6381;45.748;12.106;2023-12-22T16:23:09;9.60;94.60
12632;DHT22;6381;45.748;12.106;2023-12-22T16:25:44;9.60;96.60
12632;DHT22;6381;45.748;12.106;2023-12-22T16:28:14;9.50;96.50
12632;DHT22;6381;45.748;12.106;2023-12-22T16:30:44;9.50;96.40
12632;DHT22;6381;45.748;12.106;2023-12-22T16:33:14;9.60;96.80
12632;DHT22;6381;45.748;12.106;2023-12-22T16:35:46;9.60;97.00
12632;DHT22;6381;45.748;12.106;2023-12-22T16:38:16;9.70;96.70
12632;DHT22;6381;45.748;12.106;2023-12-22T16:40:46;9.60;96.90
12632;DHT22;6381;45.748;12.106;2023-12-22T16:43:16;9.20;98.20
12632;DHT22;6381;45.748;12.106;2023-12-22T16:45:46;9.00;99.90
12632;DHT22;6381;45.748;12.106;2023-12-22T16:48:15;9.10;99.90
12632;DHT22;6381;45.748;12.106;2023-12-22T16:50:48;9.00;99.90
12632;DHT22;6381;45.748;12.106;2023-12-22T16:53:18;8.90;99.90